sensor_id;sensor_type;location;lat;lon;timestamp;P1;durP1;ratioP1;P2;durP2;ratioP2
24273;SDS011;12392;42.678;23.380;2022-07-29T00:02:08;9.73;;;8.73;;
24273;SDS011;12392;42.678;23.380;2022-07-29T00:04:34;11.43;;;8.13;;
24273;SDS011;12392;42.678;23.380;2022-07-29T00:07:00;8.98;;;7.97;;
24273;SDS011;12392;42.678;23.380;2022-07-29T00:09:26;12.32;;;8.40;;
24273;SDS011;12392;42.678;23.380;2022-07-29T00:11:52;11.75;;;8.52;;
24273;SDS011;12392;42.678;23.380;2022-07-29T00:14:20;8.45;;;7.65;;
24273;SDS011;12392;42.678;23.380;2022-07-29T00:16:45;10.55;;;8.50;;
24273;SDS011;12392;42.678;23.380;2022-07-29T00:19:11;9.68;;;7.93;;
24273;SDS011;12392;42.678;23.380;2022-07-29T00:21:37;11.18;;;8.57;;
24273;SDS011;12392;42.678;23.380;2022-07-29T00:24:02;11.43;;;8.77;;
24273;SDS011;12392;42.678;23.380;2022-07-29T00:26:28;9.43;;;8.32;;
24273;SDS011;12392;42.678;23.380;2022-07-29T00:28:57;10.43;;;9.00;;
24273;SDS011;12392;42.678;23.380;2022-07-29T00:31:24;13.75;;;8.40;;
24273;SDS011;12392;42.678;23.380;2022-07-29T00:33:49;9.20;;;8.27;;
24273;SDS011;12392;42.678;23.380;2022-07-29T00:36:15;11.85;;;7.30;;
24273;SDS011;12392;42.678;23.380;2022-07-29T00:38:41;12.98;;;8.82;;
24273;SDS011;12392;42.678;23.380;2022-07-29T00:41:10;13.13;;;7.95;;
24273;SDS011;12392;42.678;23.380;2022-07-29T00:43:36;15.10;;;10.38;;
24273;SDS011;12392;42.678;23.380;2022-07-29T00:46:02;14.30;;;9.73;;
24273;SDS011;12392;42.678;23.380;2022-07-29T00:48:28;14.60;;;10.95;;
24273;SDS011;12392;42.678;23.380;2022-07-29T00:50:53;11.73;;;10.07;;
24273;SDS011;12392;42.678;23.380;2022-07-29T00:53:21;15.38;;;10.73;;
24273;SDS011;12392;42.678;23.380;2022-07-29T00:55:46;12.85;;;10.98;;
24273;SDS011;12392;42.678;23.380;2022-07-29T00:58:12;15.95;;;11.55;;
24273;SDS011;12392;42.678;23.380;2022-07-29T01:00:38;17.95;;;11.02;;
24273;SDS011;12392;42.678;23.380;2022-07-29T01:03:06;14.82;;;11.43;;
24273;SDS011;12392;42.678;23.380;2022-07-29T01:05:32;14.45;;;11.30;;
24273;SDS011;12392;42.678;23.380;2022-07-29T01:07:58;15.10;;;11.35;;
24273;SDS011;12392;42.678;23.380;2022-07-29T01:10:24;17.38;;;11.57;;
24273;SDS011;12392;42.678;23.380;2022-07-29T01:12:51;16.98;;;12.07;;
24273;SDS011;12392;42.678;23.380;2022-07-29T01:15:18;12.82;;;11.40;;
24273;SDS011;12392;42.678;23.380;2022-07-29T01:23:26;18.85;;;12.32;;
24273;SDS011;12392;42.678;23.380;2022-07-29T01:31:35;18.73;;;12.18;;
24273;SDS011;12392;42.678;23.380;2022-07-29T01:34:20;16.58;;;12.80;;
24273;SDS011;12392;42.678;23.380;2022-07-29T01:36:49;17.25;;;13.10;;
24273;SDS011;12392;42.678;23.380;2022-07-29T01:39:35;16.55;;;13.77;;
24273;SDS011;12392;42.678;23.380;2022-07-29T01:44:41;16.13;;;12.32;;
24273;SDS011;12392;42.678;23.380;2022-07-29T01:47:17;15.73;;;12.85;;
24273;SDS011;12392;42.678;23.380;2022-07-29T01:49:47;22.77;;;16.02;;
24273;SDS011;12392;42.678;23.380;2022-07-29T01:52:36;20.92;;;14.35;;
24273;SDS011;12392;42.678;23.380;2022-07-29T01:55:10;22.33;;;15.07;;
24273;SDS011;12392;42.678;23.380;2022-07-29T01:57:38;20.88;;;14.82;;
24273;SDS011;12392;42.678;23.380;2022-07-29T02:00:06;26.15;;;15.73;;
24273;SDS011;12392;42.678;23.380;2022-07-29T02:02:32;22.80;;;14.93;;
24273;SDS011;12392;42.678;23.380;2022-07-29T02:05:00;19.75;;;14.13;;
24273;SDS011;12392;42.678;23.380;2022-07-29T02:07:27;20.92;;;15.18;;
24273;SDS011;12392;42.678;23.380;2022-07-29T02:09:54;19.65;;;15.48;;
24273;SDS011;12392;42.678;23.380;2022-07-29T02:12:20;21.77;;;14.40;;
24273;SDS011;12392;42.678;23.380;2022-07-29T02:14:48;17.48;;;14.70;;
24273;SDS011;12392;42.678;23.380;2022-07-29T02:17:18;17.20;;;14.63;;
24273;SDS011;12392;42.678;23.380;2022-07-29T02:19:47;16.77;;;13.80;;
24273;SDS011;12392;42.678;23.380;2022-07-29T02:22:14;17.45;;;14.10;;
24273;SDS011;12392;42.678;23.380;2022-07-29T02:24:41;21.92;;;13.88;;
24273;SDS011;12392;42.678;23.380;2022-07-29T02:27:07;18.45;;;14.23;;
24273;SDS011;12392;42.678;23.380;2022-07-29T02:29:34;24.48;;;13.90;;
24273;SDS011;12392;42.678;23.380;2022-07-29T02:32:00;17.40;;;13.60;;
24273;SDS011;12392;42.678;23.380;2022-07-29T02:34:27;23.08;;;14.45;;
24273;SDS011;12392;42.678;23.380;2022-07-29T02:36:53;18.50;;;14.00;;
24273;SDS011;12392;42.678;23.380;2022-07-29T02:39:19;17.70;;;14.25;;
24273;SDS011;12392;42.678;23.380;2022-07-29T02:41:47;18.70;;;13.80;;
24273;SDS011;12392;42.678;23.380;2022-07-29T02:44:24;18.25;;;13.52;;
24273;SDS011;12392;42.678;23.380;2022-07-29T02:46:54;24.25;;;13.50;;
24273;SDS011;12392;42.678;23.380;2022-07-29T02:49:38;15.88;;;12.23;;
24273;SDS011;12392;42.678;23.380;2022-07-29T02:52:53;17.30;;;12.85;;
24273;SDS011;12392;42.678;23.380;2022-07-29T03:00:13;11.85;;;9.68;;
24273;SDS011;12392;42.678;23.380;2022-07-29T03:02:42;13.60;;;9.93;;
24273;SDS011;12392;42.678;23.380;2022-07-29T03:05:13;15.05;;;10.25;;
24273;SDS011;12392;42.678;23.380;2022-07-29T03:07:43;17.08;;;12.10;;
24273;SDS011;12392;42.678;23.380;2022-07-29T03:10:11;17.30;;;11.82;;
24273;SDS011;12392;42.678;23.380;2022-07-29T03:12:38;18.33;;;11.90;;
24273;SDS011;12392;42.678;23.380;2022-07-29T03:15:05;19.65;;;12.68;;
24273;SDS011;12392;42.678;23.380;2022-07-29T03:17:31;14.70;;;12.43;;
24273;SDS011;12392;42.678;23.380;2022-07-29T03:19:57;20.13;;;12.85;;
24273;SDS011;12392;42.678;23.380;2022-07-29T03:22:24;20.42;;;13.82;;
24273;SDS011;12392;42.678;23.380;2022-07-29T03:24:50;17.92;;;13.15;;
24273;SDS011;12392;42.678;23.380;2022-07-29T03:27:16;15.27;;;13.15;;
24273;SDS011;12392;42.678;23.380;2022-07-29T03:29:41;15.90;;;13.40;;
24273;SDS011;12392;42.678;23.380;2022-07-29T03:32:07;18.33;;;13.77;;
24273;SDS011;12392;42.678;23.380;2022-07-29T03:34:33;16.60;;;13.60;;
24273;SDS011;12392;42.678;23.380;2022-07-29T03:36:59;17.95;;;12.43;;
24273;SDS011;12392;42.678;23.380;2022-07-29T03:39:25;17.60;;;12.88;;
24273;SDS011;12392;42.678;23.380;2022-07-29T03:41:55;16.42;;;12.30;;
24273;SDS011;12392;42.678;23.380;2022-07-29T03:44:21;17.08;;;12.25;;
24273;SDS011;12392;42.678;23.380;2022-07-29T03:46:48;17.10;;;11.85;;
24273;SDS011;12392;42.678;23.380;2022-07-29T03:49:15;16.83;;;12.27;;
24273;SDS011;12392;42.678;23.380;2022-07-29T03:51:41;19.83;;;12.63;;
24273;SDS011;12392;42.678;23.380;2022-07-29T03:54:08;22.75;;;12.50;;
24273;SDS011;12392;42.678;23.380;2022-07-29T03:56:34;16.25;;;11.32;;
24273;SDS011;12392;42.678;23.380;2022-07-29T03:59:04;16.05;;;10.95;;
24273;SDS011;12392;42.678;23.380;2022-07-29T04:01:30;16.58;;;10.90;;
24273;SDS011;12392;42.678;23.380;2022-07-29T04:03:58;19.23;;;11.18;;
24273;SDS011;12392;42.678;23.380;2022-07-29T04:06:26;18.88;;;12.77;;
24273;SDS011;12392;42.678;23.380;2022-07-29T04:08:51;16.52;;;13.20;;
24273;SDS011;12392;42.678;23.380;2022-07-29T04:11:17;22.17;;;14.52;;
24273;SDS011;12392;42.678;23.380;2022-07-29T04:13:43;20.23;;;14.00;;
24273;SDS011;12392;42.678;23.380;2022-07-29T04:16:09;17.90;;;13.25;;
24273;SDS011;12392;42.678;23.380;2022-07-29T04:18:34;14.95;;;10.50;;
24273;SDS011;12392;42.678;23.380;2022-07-29T04:21:00;17.10;;;11.55;;
24273;SDS011;12392;42.678;23.380;2022-07-29T04:23:26;12.80;;;9.18;;
24273;SDS011;12392;42.678;23.380;2022-07-29T04:25:54;12.98;;;8.65;;
24273;SDS011;12392;42.678;23.380;2022-07-29T04:28:19;14.23;;;8.25;;
24273;SDS011;12392;42.678;23.380;2022-07-29T04:30:45;12.02;;;8.95;;
24273;SDS011;12392;42.678;23.380;2022-07-29T04:33:11;10.38;;;7.90;;
24273;SDS011;12392;42.678;23.380;2022-07-29T04:35:37;10.27;;;8.48;;
24273;SDS011;12392;42.678;23.380;2022-07-29T04:38:03;17.73;;;9.30;;
24273;SDS011;12392;42.678;23.380;2022-07-29T04:40:29;10.55;;;8.00;;
24273;SDS011;12392;42.678;23.380;2022-07-29T04:42:55;14.95;;;8.40;;
24273;SDS011;12392;42.678;23.380;2022-07-29T04:45:21;9.88;;;7.93;;
24273;SDS011;12392;42.678;23.380;2022-07-29T04:47:47;10.43;;;7.82;;
24273;SDS011;12392;42.678;23.380;2022-07-29T04:50:12;14.35;;;8.40;;
24273;SDS011;12392;42.678;23.380;2022-07-29T04:52:38;10.57;;;7.80;;
24273;SDS011;12392;42.678;23.380;2022-07-29T04:55:04;9.05;;;7.60;;
24273;SDS011;12392;42.678;23.380;2022-07-29T04:57:30;11.00;;;8.50;;
24273;SDS011;12392;42.678;23.380;2022-07-29T04:59:56;13.90;;;9.20;;
24273;SDS011;12392;42.678;23.380;2022-07-29T05:02:21;14.27;;;7.63;;
24273;SDS011;12392;42.678;23.380;2022-07-29T05:04:47;9.20;;;7.35;;
24273;SDS011;12392;42.678;23.380;2022-07-29T05:07:13;14.27;;;6.90;;
24273;SDS011;12392;42.678;23.380;2022-07-29T05:09:39;16.17;;;7.60;;
24273;SDS011;12392;42.678;23.380;2022-07-29T05:12:05;8.75;;;7.47;;
24273;SDS011;12392;42.678;23.380;2022-07-29T05:14:31;9.50;;;7.13;;
24273;SDS011;12392;42.678;23.380;2022-07-29T05:16:57;9.32;;;7.00;;
24273;SDS011;12392;42.678;23.380;2022-07-29T05:19:23;6.72;;;5.95;;
24273;SDS011;12392;42.678;23.380;2022-07-29T05:21:49;10.50;;;6.78;;
24273;SDS011;12392;42.678;23.380;2022-07-29T05:24:15;9.45;;;6.47;;
24273;SDS011;12392;42.678;23.380;2022-07-29T05:26:41;10.18;;;6.90;;
24273;SDS011;12392;42.678;23.380;2022-07-29T05:29:06;8.77;;;6.53;;
24273;SDS011;12392;42.678;23.380;2022-07-29T05:31:32;7.50;;;5.85;;
24273;SDS011;12392;42.678;23.380;2022-07-29T05:33:58;6.72;;;5.70;;
24273;SDS011;12392;42.678;23.380;2022-07-29T05:36:24;9.18;;;5.50;;
24273;SDS011;12392;42.678;23.380;2022-07-29T05:38:50;8.30;;;6.00;;
24273;SDS011;12392;42.678;23.380;2022-07-29T05:41:17;6.97;;;5.32;;
24273;SDS011;12392;42.678;23.380;2022-07-29T05:43:43;10.45;;;5.63;;
24273;SDS011;12392;42.678;23.380;2022-07-29T05:46:09;8.15;;;5.55;;
24273;SDS011;12392;42.678;23.380;2022-07-29T05:48:35;8.80;;;6.43;;
24273;SDS011;12392;42.678;23.380;2022-07-29T05:51:00;8.23;;;6.35;;
24273;SDS011;12392;42.678;23.380;2022-07-29T05:53:26;8.57;;;5.88;;
24273;SDS011;12392;42.678;23.380;2022-07-29T05:55:52;10.75;;;6.70;;
24273;SDS011;12392;42.678;23.380;2022-07-29T05:58:18;10.93;;;6.38;;
24273;SDS011;12392;42.678;23.380;2022-07-29T06:00:43;11.50;;;6.72;;
24273;SDS011;12392;42.678;23.380;2022-07-29T06:03:09;11.10;;;6.35;;
24273;SDS011;12392;42.678;23.380;2022-07-29T06:05:35;9.70;;;6.93;;
24273;SDS011;12392;42.678;23.380;2022-07-29T06:08:01;8.80;;;5.85;;
24273;SDS011;12392;42.678;23.380;2022-07-29T06:10:27;9.10;;;6.30;;
24273;SDS011;12392;42.678;23.380;2022-07-29T06:12:52;13.73;;;5.90;;
24273;SDS011;12392;42.678;23.380;2022-07-29T06:15:18;8.93;;;5.95;;
24273;SDS011;12392;42.678;23.380;2022-07-29T06:17:44;14.50;;;5.82;;
24273;SDS011;12392;42.678;23.380;2022-07-29T06:20:10;9.63;;;5.03;;
24273;SDS011;12392;42.678;23.380;2022-07-29T06:22:36;9.57;;;5.60;;
24273;SDS011;12392;42.678;23.380;2022-07-29T06:25:02;6.88;;;5.88;;
24273;SDS011;12392;42.678;23.380;2022-07-29T06:27:28;5.65;;;4.95;;
24273;SDS011;12392;42.678;23.380;2022-07-29T06:29:55;6.60;;;5.30;;
24273;SDS011;12392;42.678;23.380;2022-07-29T06:32:21;13.63;;;5.57;;
24273;SDS011;12392;42.678;23.380;2022-07-29T06:34:47;13.38;;;5.70;;
24273;SDS011;12392;42.678;23.380;2022-07-29T06:37:13;11.55;;;5.00;;
24273;SDS011;12392;42.678;23.380;2022-07-29T06:39:39;7.00;;;5.15;;
24273;SDS011;12392;42.678;23.380;2022-07-29T06:42:05;8.85;;;5.10;;
24273;SDS011;12392;42.678;23.380;2022-07-29T06:44:31;9.80;;;5.30;;
24273;SDS011;12392;42.678;23.380;2022-07-29T06:46:58;5.55;;;4.93;;
24273;SDS011;12392;42.678;23.380;2022-07-29T06:49:25;8.65;;;4.63;;
24273;SDS011;12392;42.678;23.380;2022-07-29T06:51:51;5.68;;;4.63;;
24273;SDS011;12392;42.678;23.380;2022-07-29T06:54:17;8.68;;;4.72;;
24273;SDS011;12392;42.678;23.380;2022-07-29T06:56:43;9.02;;;4.32;;
24273;SDS011;12392;42.678;23.380;2022-07-29T06:59:09;6.40;;;3.88;;
24273;SDS011;12392;42.678;23.380;2022-07-29T07:01:36;9.70;;;4.32;;
24273;SDS011;12392;42.678;23.380;2022-07-29T07:04:02;4.30;;;3.70;;
24273;SDS011;12392;42.678;23.380;2022-07-29T07:06:28;4.78;;;4.00;;
24273;SDS011;12392;42.678;23.380;2022-07-29T07:08:54;10.23;;;3.63;;
24273;SDS011;12392;42.678;23.380;2022-07-29T07:11:20;9.00;;;4.93;;
24273;SDS011;12392;42.678;23.380;2022-07-29T07:13:45;7.53;;;4.00;;
24273;SDS011;12392;42.678;23.380;2022-07-29T07:16:11;6.70;;;3.80;;
24273;SDS011;12392;42.678;23.380;2022-07-29T07:18:37;7.45;;;3.88;;
24273;SDS011;12392;42.678;23.380;2022-07-29T07:21:03;8.07;;;4.05;;
24273;SDS011;12392;42.678;23.380;2022-07-29T07:23:30;6.68;;;3.67;;
24273;SDS011;12392;42.678;23.380;2022-07-29T07:25:55;5.50;;;3.47;;
24273;SDS011;12392;42.678;23.380;2022-07-29T07:28:21;9.13;;;3.53;;
24273;SDS011;12392;42.678;23.380;2022-07-29T07:30:47;4.57;;;3.80;;
24273;SDS011;12392;42.678;23.380;2022-07-29T07:33:12;5.68;;;3.88;;
24273;SDS011;12392;42.678;23.380;2022-07-29T07:35:39;6.60;;;3.90;;
24273;SDS011;12392;42.678;23.380;2022-07-29T07:38:05;4.65;;;3.58;;
24273;SDS011;12392;42.678;23.380;2022-07-29T07:40:31;4.78;;;3.42;;
24273;SDS011;12392;42.678;23.380;2022-07-29T07:42:56;3.92;;;3.53;;
24273;SDS011;12392;42.678;23.380;2022-07-29T07:45:22;4.15;;;3.55;;
24273;SDS011;12392;42.678;23.380;2022-07-29T07:47:48;4.57;;;3.30;;
24273;SDS011;12392;42.678;23.380;2022-07-29T07:50:14;5.03;;;3.65;;
24273;SDS011;12392;42.678;23.380;2022-07-29T07:52:48;4.97;;;3.40;;
24273;SDS011;12392;42.678;23.380;2022-07-29T07:55:15;4.57;;;3.38;;
24273;SDS011;12392;42.678;23.380;2022-07-29T07:57:41;4.20;;;3.53;;
24273;SDS011;12392;42.678;23.380;2022-07-29T08:00:07;5.63;;;3.53;;
24273;SDS011;12392;42.678;23.380;2022-07-29T08:02:33;10.98;;;3.42;;
24273;SDS011;12392;42.678;23.380;2022-07-29T08:04:59;4.45;;;3.53;;
24273;SDS011;12392;42.678;23.380;2022-07-29T08:07:25;7.53;;;3.55;;
24273;SDS011;12392;42.678;23.380;2022-07-29T08:09:50;5.20;;;3.63;;
24273;SDS011;12392;42.678;23.380;2022-07-29T08:12:16;5.82;;;3.20;;
24273;SDS011;12392;42.678;23.380;2022-07-29T08:14:42;3.78;;;3.10;;
24273;SDS011;12392;42.678;23.380;2022-07-29T08:17:07;8.43;;;2.80;;
24273;SDS011;12392;42.678;23.380;2022-07-29T08:19:33;3.65;;;2.72;;
24273;SDS011;12392;42.678;23.380;2022-07-29T08:21:58;2.97;;;2.67;;
24273;SDS011;12392;42.678;23.380;2022-07-29T08:24:24;3.15;;;2.85;;
24273;SDS011;12392;42.678;23.380;2022-07-29T08:27:11;3.80;;;3.13;;
24273;SDS011;12392;42.678;23.380;2022-07-29T08:29:37;4.20;;;2.85;;
24273;SDS011;12392;42.678;23.380;2022-07-29T08:32:03;3.92;;;2.60;;
24273;SDS011;12392;42.678;23.380;2022-07-29T08:34:29;4.03;;;2.90;;
24273;SDS011;12392;42.678;23.380;2022-07-29T08:36:55;4.68;;;3.08;;
24273;SDS011;12392;42.678;23.380;2022-07-29T08:39:21;2.85;;;2.60;;
24273;SDS011;12392;42.678;23.380;2022-07-29T08:41:48;4.53;;;2.85;;
24273;SDS011;12392;42.678;23.380;2022-07-29T08:44:15;3.42;;;2.80;;
24273;SDS011;12392;42.678;23.380;2022-07-29T08:46:44;5.93;;;2.90;;
24273;SDS011;12392;42.678;23.380;2022-07-29T08:49:10;3.38;;;3.08;;
24273;SDS011;12392;42.678;23.380;2022-07-29T08:51:36;2.97;;;2.45;;
24273;SDS011;12392;42.678;23.380;2022-07-29T08:54:04;5.07;;;2.90;;
24273;SDS011;12392;42.678;23.380;2022-07-29T08:56:30;2.90;;;2.45;;
24273;SDS011;12392;42.678;23.380;2022-07-29T08:58:57;3.78;;;3.22;;
24273;SDS011;12392;42.678;23.380;2022-07-29T09:01:24;4.43;;;2.70;;
24273;SDS011;12392;42.678;23.380;2022-07-29T09:03:50;2.78;;;2.58;;
24273;SDS011;12392;42.678;23.380;2022-07-29T09:06:20;4.00;;;2.47;;
24273;SDS011;12392;42.678;23.380;2022-07-29T09:08:47;3.13;;;2.63;;
24273;SDS011;12392;42.678;23.380;2022-07-29T09:11:13;3.53;;;2.78;;
24273;SDS011;12392;42.678;23.380;2022-07-29T09:13:39;4.25;;;2.78;;
24273;SDS011;12392;42.678;23.380;2022-07-29T09:16:05;3.80;;;2.88;;
24273;SDS011;12392;42.678;23.380;2022-07-29T09:21:00;5.53;;;3.05;;
24273;SDS011;12392;42.678;23.380;2022-07-29T09:24:05;3.22;;;2.83;;
24273;SDS011;12392;42.678;23.380;2022-07-29T09:26:36;3.25;;;2.60;;
24273;SDS011;12392;42.678;23.380;2022-07-29T09:29:11;4.97;;;3.30;;
24273;SDS011;12392;42.678;23.380;2022-07-29T09:31:39;3.45;;;3.10;;
24273;SDS011;12392;42.678;23.380;2022-07-29T09:34:09;5.00;;;3.35;;
24273;SDS011;12392;42.678;23.380;2022-07-29T09:36:39;3.80;;;3.35;;
24273;SDS011;12392;42.678;23.380;2022-07-29T09:39:05;6.28;;;3.28;;
24273;SDS011;12392;42.678;23.380;2022-07-29T09:41:43;3.70;;;3.15;;
24273;SDS011;12392;42.678;23.380;2022-07-29T09:44:13;3.90;;;2.63;;
24273;SDS011;12392;42.678;23.380;2022-07-29T09:46:39;4.60;;;2.72;;
24273;SDS011;12392;42.678;23.380;2022-07-29T09:49:11;3.85;;;2.40;;
24273;SDS011;12392;42.678;23.380;2022-07-29T09:51:38;5.78;;;2.45;;
24273;SDS011;12392;42.678;23.380;2022-07-29T09:56:51;5.00;;;3.10;;
24273;SDS011;12392;42.678;23.380;2022-07-29T09:59:17;6.03;;;3.33;;
24273;SDS011;12392;42.678;23.380;2022-07-29T10:01:45;9.52;;;2.70;;
24273;SDS011;12392;42.678;23.380;2022-07-29T10:04:11;5.45;;;2.60;;
24273;SDS011;12392;42.678;23.380;2022-07-29T10:06:54;4.38;;;2.42;;
24273;SDS011;12392;42.678;23.380;2022-07-29T10:09:22;3.10;;;2.80;;
24273;SDS011;12392;42.678;23.380;2022-07-29T10:12:07;2.65;;;2.28;;
24273;SDS011;12392;42.678;23.380;2022-07-29T10:14:34;2.45;;;1.95;;
24273;SDS011;12392;42.678;23.380;2022-07-29T10:17:01;4.93;;;2.50;;
24273;SDS011;12392;42.678;23.380;2022-07-29T10:19:28;2.67;;;2.47;;
24273;SDS011;12392;42.678;23.380;2022-07-29T10:21:56;3.85;;;2.53;;
24273;SDS011;12392;42.678;23.380;2022-07-29T10:24:23;2.80;;;2.30;;
24273;SDS011;12392;42.678;23.380;2022-07-29T10:26:51;3.67;;;2.58;;
24273;SDS011;12392;42.678;23.380;2022-07-29T10:29:19;3.13;;;2.70;;
24273;SDS011;12392;42.678;23.380;2022-07-29T10:40:26;4.60;;;3.08;;
24273;SDS011;12392;42.678;23.380;2022-07-29T10:43:26;6.03;;;2.53;;
24273;SDS011;12392;42.678;23.380;2022-07-29T10:45:57;3.25;;;2.55;;
24273;SDS011;12392;42.678;23.380;2022-07-29T10:48:25;4.93;;;2.80;;
24273;SDS011;12392;42.678;23.380;2022-07-29T10:54:01;3.65;;;2.50;;
24273;SDS011;12392;42.678;23.380;2022-07-29T10:56:27;3.00;;;2.70;;
24273;SDS011;12392;42.678;23.380;2022-07-29T11:01:45;4.00;;;2.67;;
24273;SDS011;12392;42.678;23.380;2022-07-29T11:04:11;5.63;;;3.28;;
24273;SDS011;12392;42.678;23.380;2022-07-29T11:09:31;4.07;;;3.22;;
24273;SDS011;12392;42.678;23.380;2022-07-29T11:11:57;5.45;;;3.63;;
24273;SDS011;12392;42.678;23.380;2022-07-29T11:17:16;6.35;;;3.05;;
24273;SDS011;12392;42.678;23.380;2022-07-29T11:19:42;3.05;;;2.70;;
24273;SDS011;12392;42.678;23.380;2022-07-29T11:22:09;5.75;;;3.70;;
24273;SDS011;12392;42.678;23.380;2022-07-29T11:24:35;4.50;;;3.30;;
24273;SDS011;12392;42.678;23.380;2022-07-29T11:29:34;3.78;;;2.95;;
24273;SDS011;12392;42.678;23.380;2022-07-29T11:32:12;10.68;;;3.50;;
24273;SDS011;12392;42.678;23.380;2022-07-29T11:34:41;7.22;;;3.95;;
24273;SDS011;12392;42.678;23.380;2022-07-29T11:39:39;7.27;;;3.33;;
24273;SDS011;12392;42.678;23.380;2022-07-29T11:47:41;5.00;;;3.42;;
24273;SDS011;12392;42.678;23.380;2022-07-29T11:50:13;4.88;;;4.00;;
24273;SDS011;12392;42.678;23.380;2022-07-29T11:52:45;4.57;;;3.75;;
24273;SDS011;12392;42.678;23.380;2022-07-29T11:55:19;9.20;;;3.78;;
24273;SDS011;12392;42.678;23.380;2022-07-29T11:57:54;4.57;;;3.92;;
24273;SDS011;12392;42.678;23.380;2022-07-29T12:03:00;7.82;;;3.78;;
24273;SDS011;12392;42.678;23.380;2022-07-29T12:05:35;4.68;;;3.58;;
24273;SDS011;12392;42.678;23.380;2022-07-29T12:08:10;6.72;;;3.50;;
24273;SDS011;12392;42.678;23.380;2022-07-29T12:10:43;5.38;;;3.90;;
24273;SDS011;12392;42.678;23.380;2022-07-29T12:13:11;7.65;;;4.18;;
24273;SDS011;12392;42.678;23.380;2022-07-29T12:15:37;6.32;;;3.72;;
24273;SDS011;12392;42.678;23.380;2022-07-29T12:18:16;9.45;;;4.63;;
24273;SDS011;12392;42.678;23.380;2022-07-29T12:20:44;7.88;;;4.20;;
24273;SDS011;12392;42.678;23.380;2022-07-29T12:23:10;4.47;;;4.05;;
24273;SDS011;12392;42.678;23.380;2022-07-29T12:25:40;4.82;;;4.40;;
24273;SDS011;12392;42.678;23.380;2022-07-29T12:28:08;4.10;;;3.70;;
24273;SDS011;12392;42.678;23.380;2022-07-29T12:30:47;6.15;;;4.50;;
24273;SDS011;12392;42.678;23.380;2022-07-29T12:33:24;8.07;;;4.57;;
24273;SDS011;12392;42.678;23.380;2022-07-29T12:36:01;7.38;;;4.35;;
24273;SDS011;12392;42.678;23.380;2022-07-29T12:38:28;5.63;;;4.85;;
24273;SDS011;12392;42.678;23.380;2022-07-29T12:40:54;4.55;;;4.15;;
24273;SDS011;12392;42.678;23.380;2022-07-29T12:43:21;6.35;;;4.10;;
24273;SDS011;12392;42.678;23.380;2022-07-29T12:45:49;4.78;;;4.28;;
24273;SDS011;12392;42.678;23.380;2022-07-29T12:48:16;6.05;;;4.47;;
24273;SDS011;12392;42.678;23.380;2022-07-29T12:50:58;6.93;;;4.63;;
24273;SDS011;12392;42.678;23.380;2022-07-29T12:53:25;5.43;;;4.47;;
24273;SDS011;12392;42.678;23.380;2022-07-29T12:55:52;7.25;;;4.70;;
24273;SDS011;12392;42.678;23.380;2022-07-29T13:01:06;6.50;;;5.03;;
24273;SDS011;12392;42.678;23.380;2022-07-29T13:06:45;7.10;;;4.90;;
24273;SDS011;12392;42.678;23.380;2022-07-29T13:09:10;8.68;;;4.90;;
24273;SDS011;12392;42.678;23.380;2022-07-29T13:11:44;5.18;;;4.68;;
24273;SDS011;12392;42.678;23.380;2022-07-29T13:14:12;5.25;;;4.75;;
24273;SDS011;12392;42.678;23.380;2022-07-29T13:19:38;5.07;;;4.60;;
24273;SDS011;12392;42.678;23.380;2022-07-29T13:22:08;5.60;;;4.63;;
24273;SDS011;12392;42.678;23.380;2022-07-29T13:27:17;5.45;;;4.70;;
24273;SDS011;12392;42.678;23.380;2022-07-29T13:29:44;7.70;;;4.50;;
24273;SDS011;12392;42.678;23.380;2022-07-29T13:32:10;5.07;;;4.47;;
24273;SDS011;12392;42.678;23.380;2022-07-29T13:34:37;9.73;;;4.95;;
24273;SDS011;12392;42.678;23.380;2022-07-29T13:37:03;5.70;;;4.90;;
24273;SDS011;12392;42.678;23.380;2022-07-29T13:39:28;4.88;;;4.03;;
24273;SDS011;12392;42.678;23.380;2022-07-29T13:41:55;4.88;;;4.00;;
24273;SDS011;12392;42.678;23.380;2022-07-29T13:44:20;6.72;;;4.50;;
24273;SDS011;12392;42.678;23.380;2022-07-29T13:46:46;4.80;;;4.28;;
24273;SDS011;12392;42.678;23.380;2022-07-29T13:49:12;4.57;;;4.18;;
24273;SDS011;12392;42.678;23.380;2022-07-29T13:51:38;5.68;;;4.25;;
24273;SDS011;12392;42.678;23.380;2022-07-29T13:54:04;5.18;;;4.53;;
24273;SDS011;12392;42.678;23.380;2022-07-29T13:56:29;7.82;;;4.40;;
24273;SDS011;12392;42.678;23.380;2022-07-29T13:58:55;10.13;;;4.63;;
24273;SDS011;12392;42.678;23.380;2022-07-29T14:01:22;5.00;;;4.32;;
24273;SDS011;12392;42.678;23.380;2022-07-29T14:03:48;4.57;;;4.20;;
24273;SDS011;12392;42.678;23.380;2022-07-29T14:06:14;6.30;;;4.47;;
24273;SDS011;12392;42.678;23.380;2022-07-29T14:08:39;6.30;;;5.30;;
24273;SDS011;12392;42.678;23.380;2022-07-29T14:11:05;4.93;;;4.53;;
24273;SDS011;12392;42.678;23.380;2022-07-29T14:13:31;5.03;;;4.50;;
24273;SDS011;12392;42.678;23.380;2022-07-29T14:15:57;5.40;;;4.53;;
24273;SDS011;12392;42.678;23.380;2022-07-29T14:18:22;5.53;;;4.63;;
24273;SDS011;12392;42.678;23.380;2022-07-29T14:20:48;5.35;;;4.15;;
24273;SDS011;12392;42.678;23.380;2022-07-29T14:23:14;4.93;;;4.43;;
24273;SDS011;12392;42.678;23.380;2022-07-29T14:25:40;4.97;;;4.55;;
24273;SDS011;12392;42.678;23.380;2022-07-29T14:28:06;5.40;;;4.90;;
24273;SDS011;12392;42.678;23.380;2022-07-29T14:30:32;7.90;;;4.43;;
24273;SDS011;12392;42.678;23.380;2022-07-29T14:32:57;5.03;;;4.57;;
24273;SDS011;12392;42.678;23.380;2022-07-29T14:35:23;6.53;;;4.50;;
24273;SDS011;12392;42.678;23.380;2022-07-29T14:37:49;5.50;;;4.65;;
24273;SDS011;12392;42.678;23.380;2022-07-29T14:40:15;6.68;;;4.93;;
24273;SDS011;12392;42.678;23.380;2022-07-29T14:42:41;8.20;;;4.53;;
24273;SDS011;12392;42.678;23.380;2022-07-29T14:45:07;6.43;;;4.88;;
24273;SDS011;12392;42.678;23.380;2022-07-29T14:47:34;6.20;;;4.60;;
24273;SDS011;12392;42.678;23.380;2022-07-29T14:50:00;10.40;;;5.10;;
24273;SDS011;12392;42.678;23.380;2022-07-29T14:52:26;7.18;;;4.40;;
24273;SDS011;12392;42.678;23.380;2022-07-29T14:54:52;6.22;;;4.78;;
24273;SDS011;12392;42.678;23.380;2022-07-29T14:57:17;7.97;;;4.90;;
24273;SDS011;12392;42.678;23.380;2022-07-29T14:59:43;9.27;;;5.03;;
24273;SDS011;12392;42.678;23.380;2022-07-29T15:02:08;6.38;;;4.68;;
24273;SDS011;12392;42.678;23.380;2022-07-29T15:04:34;5.85;;;4.88;;
24273;SDS011;12392;42.678;23.380;2022-07-29T15:07:00;10.63;;;5.22;;
24273;SDS011;12392;42.678;23.380;2022-07-29T15:09:26;7.05;;;5.28;;
24273;SDS011;12392;42.678;23.380;2022-07-29T15:11:51;6.00;;;5.20;;
24273;SDS011;12392;42.678;23.380;2022-07-29T15:14:17;5.90;;;4.82;;
24273;SDS011;12392;42.678;23.380;2022-07-29T15:16:43;6.00;;;4.63;;
24273;SDS011;12392;42.678;23.380;2022-07-29T15:19:09;5.93;;;4.88;;
24273;SDS011;12392;42.678;23.380;2022-07-29T15:21:35;5.45;;;4.90;;
24273;SDS011;12392;42.678;23.380;2022-07-29T15:24:00;4.90;;;4.50;;
24273;SDS011;12392;42.678;23.380;2022-07-29T15:26:26;6.43;;;4.93;;
24273;SDS011;12392;42.678;23.380;2022-07-29T15:28:52;6.18;;;4.40;;
24273;SDS011;12392;42.678;23.380;2022-07-29T15:31:17;6.57;;;5.00;;
24273;SDS011;12392;42.678;23.380;2022-07-29T15:33:46;5.97;;;4.97;;
24273;SDS011;12392;42.678;23.380;2022-07-29T15:36:12;5.95;;;4.60;;
24273;SDS011;12392;42.678;23.380;2022-07-29T15:38:38;7.50;;;4.90;;